This is the latest recevied weather packets stored in our database for station/object OK1JRA-6. If no packets are shown the sender has not sent any weather packets the latest 1 day(s).
| Time | Temp. | Humidity | Pressure | Rain* | Wind** | Luminosity | Snow |
|---|---|---|---|---|---|---|---|
| 1778077800 | 25.56° C | 33% | 1005.3 hPa | 0 mm | - | - | - |
| 1778075963 | 31.11° C | 24% | 1005.5 hPa | 0 mm | - | - | - |
| 1778075657 | 33.33° C | 22% | 1005.6 hPa | 0 mm | - | - | - |
| 1778074432 | 33.33° C | 22% | 1005.8 hPa | 0 mm | - | - | - |
| 1778074126 | 33.89° C | 21% | 1005.8 hPa | 0 mm | - | - | - |
| 1778073207 | 33.89° C | 23% | 1005.9 hPa | 0 mm | - | - | - |
| 1778072595 | 32.22° C | 24% | 1005.8 hPa | 0 mm | - | - | - |
| 1778071676 | 30.56° C | 24% | 1006 hPa | 0 mm | - | - | - |
| 1778071064 | 31.67° C | 24% | 1006.1 hPa | 0 mm | - | - | - |
| 1778069839 | 30° C | 28% | 1006.5 hPa | 0 mm | - | - | - |
| 1778068002 | 32.78° C | 27% | 1006.8 hPa | 0 mm | - | - | - |
| 1778067696 | 32.22° C | 27% | 1006.9 hPa | 0 mm | - | - | - |
| 1778066165 | 28.89° C | 36% | 1007.1 hPa | 0 mm | - | - | - |
| 1778064940 | 23.89° C | 34% | 1007.3 hPa | 0 mm | - | - | - |
| 1778063715 | 23.89° C | 39% | 1007.4 hPa | 0 mm | - | - | - |
| 1778063409 | 23.33° C | 40% | 1007.5 hPa | 0 mm | - | - | - |
| 1778063103 | 23.89° C | 37% | 1007.6 hPa | 0 mm | - | - | - |
| 1778061878 | 22.78° C | 42% | 1007.8 hPa | 0 mm | - | - | - |
| 1778061572 | 22.78° C | 43% | 1007.8 hPa | 0 mm | - | - | - |
| 1778060041 | 20.56° C | 49% | 1008 hPa | 0 mm | - | - | - |
| 1778059735 | 20.56° C | 47% | 1007.9 hPa | 0 mm | - | - | - |
| 1778058816 | 20.56° C | 48% | 1007.9 hPa | 0 mm | - | - | - |
| 1778058510 | 20.56° C | 49% | 1007.8 hPa | 0 mm | - | - | - |
| 1778058204 | 20.56° C | 49% | 1007.8 hPa | 0 mm | - | - | - |
| 1778057898 | 20.56° C | 49% | 1007.9 hPa | 0 mm | - | - | - |
* Rain latest hour (hover to see other rain measurements)
** Current wind speed in m/s (hover to see current wind gust speed)